Time;durP1;ratioP1;P1;durP2;ratioP2;P2;SDS_P1;SDS_P2;PMS_P1;PMS_P2;Temp;Humidity;BMP_temperature;BMP_pressure;BME280_temperature;BME280_humidity;BME280_pressure;Samples;Min_cycle;Max_cycle;Signal;HPM_P1;HPM_P2
2023/08/05 00:01:42;;;;;;;5.30;4.40;;;20.80;86.20;;;;;;5011726;28;20202;-71
2023/08/05 00:04:09;;;;;;;5.20;4.27;;;20.80;86.30;;;;;;5010849;28;20202;-72
2023/08/05 00:06:36;;;;;;;5.23;4.63;;;20.80;86.60;;;;;;5013595;28;20338;-71
2023/08/05 00:09:04;;;;;;;5.07;3.80;;;20.80;86.60;;;;;;5015328;28;20199;-71
2023/08/05 00:11:31;;;;;;;4.50;3.87;;;20.80;86.70;;;;;;5015322;28;20201;-72
2023/08/05 00:13:58;;;;;;;5.03;3.97;;;20.80;86.60;;;;;;5015429;28;20590;-72
2023/08/05 00:16:25;;;;;;;5.63;4.03;;;20.80;86.60;;;;;;5014317;28;20320;-71
2023/08/05 00:18:51;;;;;;;4.47;4.00;;;20.80;86.70;;;;;;5014138;28;20203;-71
2023/08/05 00:21:20;;;;;;;6.40;4.23;;;20.70;86.70;;;;;;5014639;28;20199;-71
2023/08/05 00:23:47;;;;;;;4.20;3.80;;;20.70;86.90;;;;;;5014786;28;20570;-71
2023/08/05 00:26:16;;;;;;;7.97;4.20;;;20.70;87.00;;;;;;5015043;28;20231;-71
2023/08/05 00:28:43;;;;;;;5.20;4.57;;;20.60;87.00;;;;;;5014932;28;20209;-72
2023/08/05 00:31:09;;;;;;;5.13;4.47;;;20.50;87.10;;;;;;5014572;28;20234;-72
2023/08/05 00:33:36;;;;;;;6.73;3.93;;;20.50;87.60;;;;;;5014552;28;20198;-72
2023/08/05 00:36:03;;;;;;;4.27;3.83;;;20.40;87.60;;;;;;5014996;28;20234;-72
2023/08/05 00:38:30;;;;;;;4.80;3.90;;;20.40;87.80;;;;;;5014613;28;20241;-72
2023/08/05 00:40:57;;;;;;;4.70;3.70;;;20.30;87.80;;;;;;5014513;28;20219;-72
2023/08/05 00:43:25;;;;;;;3.70;3.40;;;20.40;87.90;;;;;;5002765;28;20234;-72
2023/08/05 00:45:52;;;;;;;3.80;3.40;;;20.40;87.80;;;;;;4995311;28;20204;-72
2023/08/05 00:48:19;;;;;;;3.70;3.40;;;20.40;87.70;;;;;;4994833;28;20315;-72
2023/08/05 00:50:46;;;;;;;4.27;3.70;;;20.20;87.80;;;;;;4994749;28;20208;-72
2023/08/05 00:53:14;;;;;;;5.80;3.80;;;20.20;88.20;;;;;;5009059;28;20206;-72
2023/08/05 00:55:42;;;;;;;4.93;3.60;;;20.10;89.10;;;;;;5014239;28;20227;-72
2023/08/05 00:58:09;;;;;;;6.90;3.87;;;20.00;88.50;;;;;;5013863;28;20222;-72
2023/08/05 01:00:37;;;;;;;4.43;3.57;;;20.00;88.80;;;;;;5014479;28;20604;-72
2023/08/05 01:03:04;;;;;;;3.90;3.50;;;19.90;88.80;;;;;;5013311;28;20195;-72
2023/08/05 01:05:31;;;;;;;4.23;3.83;;;20.00;88.90;;;;;;5014167;28;20541;-72
2023/08/05 01:07:59;;;;;;;3.90;3.53;;;20.00;88.80;;;;;;5009482;28;20195;-72
2023/08/05 01:10:26;;;;;;;5.13;3.27;;;20.00;88.80;;;;;;5014246;28;20564;-72
2023/08/05 01:12:53;;;;;;;4.00;3.53;;;20.00;88.80;;;;;;5013800;28;20203;-71
2023/08/05 01:15:20;;;;;;;4.30;3.63;;;20.00;88.70;;;;;;5013746;28;20394;-72
2023/08/05 01:17:48;;;;;;;3.87;3.47;;;20.10;88.50;;;;;;5012546;28;20230;-72
2023/08/05 01:20:18;;;;;;;5.70;3.33;;;20.20;88.40;;;;;;5013151;28;20219;-72
2023/08/05 01:22:44;;;;;;;4.87;3.43;;;20.20;88.20;;;;;;5013697;28;20730;-72
2023/08/05 01:25:37;;;;;;;3.40;3.10;;;20.30;88.10;;;;;;5013844;28;20203;-72
2023/08/05 01:28:05;;;;;;;6.73;4.53;;;20.30;88.10;;;;;;4987612;28;20271;-72
2023/08/05 01:30:32;;;;;;;3.77;3.47;;;20.30;87.70;;;;;;5013980;28;20210;-72
2023/08/05 01:33:01;;;;;;;3.70;3.03;;;20.30;87.70;;;;;;5014015;28;20237;-72
2023/08/05 01:35:28;;;;;;;4.93;3.63;;;20.30;87.70;;;;;;5013681;28;20217;-72
2023/08/05 01:37:55;;;;;;;3.73;3.37;;;20.20;87.70;;;;;;5013260;28;20211;-72
2023/08/05 01:40:27;;;;;;;6.57;3.70;;;20.20;87.90;;;;;;5013723;28;20199;-72
2023/08/05 01:42:56;;;;;;;4.10;3.57;;;20.10;88.00;;;;;;5005693;28;20203;-72
2023/08/05 01:45:23;;;;;;;4.37;3.60;;;19.90;88.30;;;;;;5013454;28;20253;-72
2023/08/05 01:47:50;;;;;;;5.27;3.60;;;19.80;89.50;;;;;;5013639;28;20203;-72
2023/08/05 01:50:17;;;;;;;4.27;3.47;;;19.70;89.00;;;;;;5003121;28;20302;-72
2023/08/05 01:52:43;;;;;;;5.30;3.80;;;19.70;89.00;;;;;;5012244;28;20678;-72
2023/08/05 01:55:10;;;;;;;4.60;3.90;;;19.70;89.10;;;;;;5013057;28;20223;-72
2023/08/05 01:57:37;;;;;;;4.10;3.70;;;19.70;89.00;;;;;;5012630;28;20257;-72
2023/08/05 02:00:08;;;;;;;5.40;3.70;;;19.70;89.10;;;;;;5012735;28;20237;-72
2023/08/05 02:02:35;;;;;;;4.80;3.77;;;19.70;89.20;;;;;;5012646;28;20249;-70
2023/08/05 02:05:02;;;;;;;5.77;3.90;;;19.70;89.70;;;;;;5013152;28;20195;-71
2023/08/05 02:07:29;;;;;;;5.17;3.70;;;19.80;88.90;;;;;;5012966;28;20203;-71
2023/08/05 02:09:56;;;;;;;3.87;3.33;;;19.80;89.40;;;;;;5013007;28;20227;-71
2023/08/05 02:12:23;;;;;;;4.37;3.40;;;19.90;89.30;;;;;;5011024;28;20214;-71
2023/08/05 02:14:50;;;;;;;4.57;3.60;;;19.90;88.30;;;;;;5012457;28;20265;-71
2023/08/05 02:17:18;;;;;;;4.90;3.70;;;20.00;88.30;;;;;;5012558;28;20399;-71
2023/08/05 02:19:45;;;;;;;5.30;4.00;;;20.00;88.10;;;;;;5011593;28;20203;-71
2023/08/05 02:22:12;;;;;;;4.53;3.73;;;20.00;88.20;;;;;;5012373;28;20227;-71
2023/08/05 02:24:39;;;;;;;4.40;3.43;;;20.00;88.20;;;;;;5012656;28;20214;-71
2023/08/05 02:27:06;;;;;;;4.30;3.90;;;19.90;88.00;;;;;;5012084;28;20222;-72
2023/08/05 02:29:33;;;;;;;5.30;3.60;;;19.90;88.10;;;;;;5011201;28;20197;-71
2023/08/05 02:32:02;;;;;;;4.37;3.90;;;20.00;88.10;;;;;;5012601;28;20229;-71
2023/08/05 02:34:30;;;;;;;6.90;3.80;;;20.00;88.00;;;;;;5012285;28;20231;-71
2023/08/05 02:36:57;;;;;;;4.97;3.80;;;20.00;88.10;;;;;;5011565;28;20233;-71
2023/08/05 02:39:23;;;;;;;4.90;4.40;;;20.00;88.10;;;;;;5012220;28;20226;-71
2023/08/05 02:41:50;;;;;;;4.63;3.47;;;20.00;88.00;;;;;;5011720;28;20207;-71
2023/08/05 02:44:17;;;;;;;4.73;4.00;;;20.00;87.90;;;;;;5005544;28;20311;-71
2023/08/05 02:46:44;;;;;;;4.40;3.70;;;20.00;87.90;;;;;;5012378;28;20203;-71
2023/08/05 02:49:11;;;;;;;4.90;3.70;;;20.00;87.70;;;;;;5011182;28;20199;-71
2023/08/05 02:51:39;;;;;;;5.20;3.63;;;19.90;87.60;;;;;;5011182;28;20704;-72
2023/08/05 02:54:06;;;;;;;6.70;4.37;;;19.90;87.60;;;;;;5012762;28;20191;-71
2023/08/05 02:56:33;;;;;;;4.77;3.90;;;19.90;87.70;;;;;;5012216;28;20223;-71
2023/08/05 02:59:00;;;;;;;6.33;4.10;;;19.90;87.70;;;;;;5011412;28;20222;-71
2023/08/05 03:01:27;;;;;;;4.33;3.93;;;19.80;87.70;;;;;;5012103;28;20614;-71
2023/08/05 03:03:54;;;;;;;5.40;4.30;;;19.80;87.80;;;;;;5011966;28;20227;-71
2023/08/05 03:06:21;;;;;;;4.77;4.27;;;19.80;88.00;;;;;;5011939;28;20196;-71
2023/08/05 03:08:49;;;;;;;5.47;4.40;;;19.70;87.90;;;;;;5012168;28;20219;-71
2023/08/05 03:11:15;;;;;;;6.00;4.20;;;19.70;87.90;;;;;;5010628;28;20225;-71
2023/08/05 03:13:42;;;;;;;5.50;4.20;;;19.70;87.90;;;;;;5012088;28;20238;-71
2023/08/05 03:16:10;;;;;;;4.13;3.73;;;19.70;87.90;;;;;;5011315;28;20223;-71
2023/08/05 03:18:37;;;;;;;6.23;4.23;;;19.70;87.60;;;;;;5011101;28;20847;-71
2023/08/05 03:21:04;;;;;;;4.80;4.13;;;19.70;87.60;;;;;;5011964;28;20211;-71
2023/08/05 03:23:31;;;;;;;7.33;4.07;;;19.60;88.50;;;;;;5012307;28;20215;-71
2023/08/05 03:25:59;;;;;;;5.27;3.90;;;19.50;87.80;;;;;;5011903;28;20335;-71
2023/08/05 03:28:26;;;;;;;5.10;3.90;;;19.50;87.90;;;;;;5011422;28;20199;-71
2023/08/05 03:30:53;;;;;;;4.30;3.90;;;19.50;87.90;;;;;;5011871;28;20229;-71
2023/08/05 03:33:20;;;;;;;5.10;4.60;;;19.50;87.80;;;;;;5012252;28;20284;-71
2023/08/05 03:35:46;;;;;;;4.77;4.20;;;19.50;87.90;;;;;;5012265;28;20218;-71
2023/08/05 03:38:13;;;;;;;4.93;4.27;;;19.50;88.20;;;;;;5011442;28;20199;-71
2023/08/05 03:40:40;;;;;;;6.13;4.80;;;19.50;88.30;;;;;;5012079;28;20207;-71
2023/08/05 03:43:09;;;;;;;6.37;4.23;;;19.50;88.30;;;;;;5006068;28;20228;-71
2023/08/05 03:45:36;;;;;;;5.40;4.03;;;19.40;88.40;;;;;;5001212;28;20209;-71
2023/08/05 03:48:03;;;;;;;5.23;4.40;;;19.40;88.60;;;;;;5015489;28;20473;-71
2023/08/05 03:50:30;;;;;;;5.07;4.37;;;19.40;88.60;;;;;;5015286;28;20193;-71
2023/08/05 03:52:57;;;;;;;5.63;4.60;;;19.40;88.90;;;;;;5015364;28;20219;-71
2023/08/05 03:55:24;;;;;;;5.20;4.50;;;19.40;88.90;;;;;;5014417;28;20231;-71
2023/08/05 03:57:52;;;;;;;5.33;4.33;;;19.40;88.90;;;;;;5015406;28;20207;-71
2023/08/05 04:00:20;;;;;;;7.30;4.07;;;19.40;88.80;;;;;;5014936;28;20251;-71
2023/08/05 04:02:47;;;;;;;6.97;4.73;;;19.40;88.80;;;;;;5015258;28;20572;-71
2023/08/05 04:05:14;;;;;;;6.70;4.50;;;19.30;88.90;;;;;;5015464;28;20454;-72
2023/08/05 04:07:40;;;;;;;5.77;4.47;;;19.30;88.80;;;;;;5014650;28;20233;-71
2023/08/05 04:10:08;;;;;;;4.87;4.30;;;19.30;88.80;;;;;;5014711;28;20217;-71
2023/08/05 04:12:35;;;;;;;5.00;4.17;;;19.40;88.80;;;;;;5014672;28;20343;-71
2023/08/05 04:15:03;;;;;;;7.03;4.20;;;19.40;88.60;;;;;;5015135;28;20576;-72
2023/08/05 04:17:31;;;;;;;5.13;4.30;;;19.30;88.50;;;;;;5014494;28;20223;-71
2023/08/05 04:20:00;;;;;;;5.93;4.37;;;19.40;88.50;;;;;;5014777;28;20233;-71
2023/08/05 04:22:27;;;;;;;6.77;4.23;;;19.40;88.60;;;;;;5013953;28;20215;-71
2023/08/05 04:24:54;;;;;;;6.53;4.60;;;19.40;88.60;;;;;;5014684;28;20231;-72
2023/08/05 04:27:21;;;;;;;5.27;4.40;;;19.40;88.50;;;;;;5014606;28;20187;-72
2023/08/05 04:29:48;;;;;;;6.57;4.60;;;19.40;88.50;;;;;;5014699;28;20605;-72
2023/08/05 04:32:15;;;;;;;8.30;4.50;;;19.40;88.40;;;;;;5014449;28;20227;-71
2023/08/05 04:34:45;;;;;;;5.47;4.30;;;19.40;88.50;;;;;;5014604;28;20204;-72
2023/08/05 04:37:19;;;;;;;10.27;4.87;;;19.40;88.30;;;;;;5014025;28;20225;-72
2023/08/05 04:39:46;;;;;;;6.13;4.97;;;19.40;88.30;;;;;;5014772;28;20293;-71
2023/08/05 04:42:14;;;;;;;5.03;4.53;;;19.40;88.20;;;;;;5013863;28;20203;-71
2023/08/05 04:44:41;;;;;;;5.47;4.63;;;19.40;88.20;;;;;;5014623;28;20314;-72
2023/08/05 04:47:08;;;;;;;6.47;4.50;;;19.40;88.30;;;;;;5013967;28;20201;-72
2023/08/05 04:49:35;;;;;;;4.93;4.43;;;19.40;89.20;;;;;;5014222;28;20704;-72
2023/08/05 04:52:06;;;;;;;5.00;4.50;;;19.40;88.50;;;;;;5013153;28;20225;-71
2023/08/05 04:54:36;;;;;;;5.57;4.47;;;19.30;88.60;;;;;;5013877;28;20278;-72
2023/08/05 04:57:03;;;;;;;7.93;5.90;;;19.30;88.60;;;;;;5013856;28;20606;-72
2023/08/05 04:59:29;;;;;;;8.03;5.20;;;19.30;88.80;;;;;;5014440;28;20470;-72
2023/08/05 05:01:56;;;;;;;8.90;5.20;;;19.30;88.90;;;;;;5013555;28;20211;-72
2023/08/05 05:04:23;;;;;;;6.33;4.80;;;19.30;88.90;;;;;;5014002;28;20476;-72
2023/08/05 05:06:50;;;;;;;5.93;4.40;;;19.30;88.90;;;;;;5014271;28;20462;-71
2023/08/05 05:09:18;;;;;;;6.23;4.53;;;19.30;89.10;;;;;;5013213;28;20703;-72
2023/08/05 05:11:45;;;;;;;5.00;4.43;;;19.30;89.80;;;;;;5013969;28;20282;-71
2023/08/05 05:14:12;;;;;;;7.10;5.10;;;19.30;89.10;;;;;;5013936;28;20468;-72
2023/08/05 05:16:38;;;;;;;6.40;4.70;;;19.30;88.80;;;;;;5012419;28;20319;-72
2023/08/05 05:19:05;;;;;;;5.63;4.50;;;19.40;88.60;;;;;;5013703;28;20226;-72
2023/08/05 05:21:32;;;;;;;4.87;4.37;;;19.40;88.60;;;;;;5012768;28;20223;-72
2023/08/05 05:23:59;;;;;;;7.27;4.73;;;19.40;88.60;;;;;;5013485;28;20701;-72
2023/08/05 05:26:27;;;;;;;5.30;4.80;;;19.40;88.80;;;;;;5014301;28;20210;-72
2023/08/05 05:28:54;;;;;;;5.60;5.10;;;19.40;88.90;;;;;;5013510;28;20926;-71
2023/08/05 05:31:21;;;;;;;6.90;4.93;;;19.40;88.90;;;;;;5013491;28;20454;-71
2023/08/05 05:33:48;;;;;;;6.07;4.93;;;19.50;89.20;;;;;;5013695;28;21027;-72
2023/08/05 05:36:15;;;;;;;6.63;4.87;;;19.50;89.40;;;;;;5013497;28;20218;-71
2023/08/05 05:38:42;;;;;;;7.27;5.27;;;19.50;89.50;;;;;;5013694;28;20298;-71
2023/08/05 05:41:08;;;;;;;7.53;5.03;;;19.50;89.50;;;;;;5013891;28;20233;-72
2023/08/05 05:43:38;;;;;;;5.53;5.03;;;19.50;89.80;;;;;;5010801;28;20210;-72
2023/08/05 05:46:05;;;;;;;6.97;5.53;;;19.50;89.80;;;;;;5013525;28;20223;-72
2023/08/05 05:48:32;;;;;;;5.47;4.70;;;19.50;90.00;;;;;;5013729;28;20574;-72
2023/08/05 05:50:59;;;;;;;7.87;5.50;;;19.60;90.00;;;;;;5012606;28;20226;-72
2023/08/05 05:53:25;;;;;;;7.10;5.30;;;19.60;89.70;;;;;;5012453;28;20599;-72
2023/08/05 05:55:53;;;;;;;6.63;5.10;;;19.60;89.70;;;;;;5012661;28;20462;-72
2023/08/05 05:58:20;;;;;;;7.80;5.47;;;19.60;90.00;;;;;;5012775;28;20230;-72
2023/08/05 06:00:54;;;;;;;5.80;4.70;;;19.60;90.00;;;;;;5013203;28;20215;-72
2023/08/05 06:03:21;;;;;;;6.73;4.80;;;19.70;90.00;;;;;;5012644;28;20192;-72
2023/08/05 06:05:50;;;;;;;6.73;5.10;;;19.80;90.10;;;;;;5012950;28;20556;-72
2023/08/05 06:08:16;;;;;;;7.70;5.40;;;19.80;89.70;;;;;;5012763;28;20211;-72
2023/08/05 06:10:43;;;;;;;6.43;5.20;;;19.80;89.50;;;;;;5013248;28;20237;-72
2023/08/05 06:13:10;;;;;;;6.13;5.00;;;19.80;89.30;;;;;;5011768;28;20290;-72
2023/08/05 06:15:40;;;;;;;5.40;4.83;;;19.90;89.10;;;;;;5012119;28;20302;-72
2023/08/05 06:18:08;;;;;;;7.37;5.23;;;19.90;89.20;;;;;;5012096;28;20230;-71
2023/08/05 06:20:36;;;;;;;4.73;4.30;;;20.00;89.00;;;;;;5010374;28;20203;-72
2023/08/05 06:23:02;;;;;;;7.23;4.73;;;20.10;88.90;;;;;;5011586;28;20223;-72
2023/08/05 06:25:29;;;;;;;6.83;4.60;;;20.10;88.60;;;;;;5012359;28;20211;-72
2023/08/05 06:27:56;;;;;;;5.73;4.60;;;20.20;88.40;;;;;;5012467;28;20533;-72
2023/08/05 06:30:23;;;;;;;5.07;4.57;;;20.20;88.30;;;;;;5011908;28;20728;-72
2023/08/05 06:32:50;;;;;;;5.03;4.53;;;20.20;88.40;;;;;;5012420;28;20221;-72
2023/08/05 06:35:18;;;;;;;6.67;4.87;;;20.20;88.00;;;;;;5012361;28;20230;-72
2023/08/05 06:37:45;;;;;;;4.63;4.23;;;20.20;88.00;;;;;;5012187;28;20738;-72
2023/08/05 06:40:12;;;;;;;5.40;4.60;;;20.20;88.20;;;;;;5011967;28;20572;-72
2023/08/05 06:42:39;;;;;;;4.87;4.47;;;20.30;88.30;;;;;;5011791;28;20757;-72
2023/08/05 06:45:07;;;;;;;5.20;4.53;;;20.40;88.60;;;;;;5012603;28;20207;-72
2023/08/05 06:47:35;;;;;;;6.87;4.70;;;20.40;87.70;;;;;;5011162;28;20630;-72
2023/08/05 06:50:04;;;;;;;7.43;4.93;;;20.40;87.40;;;;;;5011624;28;20199;-72
2023/08/05 06:52:32;;;;;;;6.83;4.00;;;20.40;87.10;;;;;;5011494;28;20258;-71
2023/08/05 06:55:01;;;;;;;4.87;4.13;;;20.50;86.80;;;;;;5011644;28;20713;-72
2023/08/05 06:57:28;;;;;;;5.37;3.93;;;20.50;87.00;;;;;;5011716;28;20314;-72
2023/08/05 06:59:55;;;;;;;6.27;4.33;;;20.50;87.00;;;;;;5011608;28;20231;-72
2023/08/05 07:02:22;;;;;;;4.23;3.83;;;20.70;86.90;;;;;;5011854;28;20213;-72
2023/08/05 07:04:48;;;;;;;4.93;3.90;;;20.70;86.10;;;;;;5011508;28;20203;-72
2023/08/05 07:07:15;;;;;;;5.50;4.03;;;20.80;86.30;;;;;;5012123;28;20647;-72
2023/08/05 07:09:44;;;;;;;5.67;3.70;;;20.80;85.50;;;;;;5011150;28;20655;-72
2023/08/05 07:12:10;;;;;;;4.20;3.80;;;20.90;85.40;;;;;;5010867;28;20294;-72
2023/08/05 07:14:38;;;;;;;5.07;3.50;;;21.00;85.00;;;;;;5007897;28;20201;-72
2023/08/05 07:17:05;;;;;;;5.10;3.73;;;21.10;84.70;;;;;;5009535;28;20227;-72
2023/08/05 07:19:32;;;;;;;5.50;4.10;;;21.20;84.50;;;;;;5008890;28;20850;-72
2023/08/05 07:21:59;;;;;;;4.70;3.60;;;21.30;85.30;;;;;;5012756;28;20194;-72
2023/08/05 07:24:26;;;;;;;4.70;3.87;;;21.40;83.60;;;;;;4992553;28;20214;-71
2023/08/05 07:26:54;;;;;;;5.03;4.00;;;21.40;82.50;;;;;;4993572;28;20659;-72
2023/08/05 07:29:21;;;;;;;4.37;3.70;;;21.30;82.00;;;;;;5010898;28;20227;-72
2023/08/05 07:31:48;;;;;;;3.60;3.20;;;21.30;82.30;;;;;;5010543;28;20746;-71
2023/08/05 07:34:15;;;;;;;4.13;3.10;;;21.50;82.10;;;;;;5011203;28;20203;-73
2023/08/05 07:36:43;;;;;;;4.57;3.30;;;21.50;81.40;;;;;;5012026;28;20227;-72
2023/08/05 07:39:10;;;;;;;4.37;3.50;;;21.70;81.30;;;;;;5012270;28;20226;-72
2023/08/05 07:41:38;;;;;;;3.83;3.40;;;21.70;80.70;;;;;;5011550;28;20198;-72
2023/08/05 07:44:07;;;;;;;4.40;3.00;;;21.70;80.60;;;;;;5012216;28;20277;-72
2023/08/05 07:46:37;;;;;;;3.87;3.43;;;21.80;80.20;;;;;;5011558;28;20667;-72
2023/08/05 07:49:04;;;;;;;4.53;3.47;;;21.90;80.40;;;;;;5011274;28;20210;-72
2023/08/05 07:51:31;;;;;;;3.50;3.20;;;21.90;80.70;;;;;;5010660;28;20317;-72
2023/08/05 07:53:58;;;;;;;4.03;3.10;;;21.90;80.50;;;;;;5010612;28;20207;-71
2023/08/05 07:56:25;;;;;;;4.37;2.90;;;21.90;80.50;;;;;;5011360;28;20294;-71
2023/08/05 07:58:52;;;;;;;3.57;3.10;;;21.90;80.40;;;;;;5010467;28;21885;-71
2023/08/05 08:01:22;;;;;;;6.70;3.60;;;21.90;79.50;;;;;;5010503;28;20211;-72
2023/08/05 08:03:51;;;;;;;4.60;3.53;;;22.00;79.50;;;;;;5011296;28;20196;-72
2023/08/05 08:06:19;;;;;;;4.53;3.20;;;22.00;80.10;;;;;;5010444;28;20640;-72
2023/08/05 08:08:46;;;;;;;5.07;3.30;;;22.20;80.20;;;;;;5010420;28;20222;-72
2023/08/05 08:11:14;;;;;;;7.33;3.40;;;22.20;79.50;;;;;;5010900;28;20234;-71
2023/08/05 08:13:41;;;;;;;5.23;3.23;;;22.10;78.60;;;;;;5011128;28;20215;-71
2023/08/05 08:16:08;;;;;;;4.53;2.97;;;22.10;78.20;;;;;;5010461;28;20223;-71
2023/08/05 08:18:37;;;;;;;3.73;3.10;;;22.20;78.00;;;;;;5010106;28;20295;-72
2023/08/05 08:21:05;;;;;;;3.43;2.77;;;22.40;78.00;;;;;;5010698;28;20203;-72
2023/08/05 08:23:32;;;;;;;2.93;2.40;;;22.50;77.60;;;;;;5010489;28;20298;-71
2023/08/05 08:25:59;;;;;;;4.10;3.40;;;22.60;78.40;;;;;;5010515;28;20259;-71
2023/08/05 08:28:26;;;;;;;3.63;2.90;;;22.80;76.60;;;;;;5013637;28;20208;-72
2023/08/05 08:30:54;;;;;;;5.20;3.13;;;22.90;76.40;;;;;;5013284;28;20227;-71
2023/08/05 08:33:21;;;;;;;4.97;3.10;;;23.00;76.60;;;;;;5010308;28;20227;-71
2023/08/05 08:35:50;;;;;;;5.17;3.10;;;23.00;76.60;;;;;;5006807;28;20209;-72
2023/08/05 08:38:17;;;;;;;4.43;3.43;;;23.00;76.70;;;;;;5013151;28;20223;-72
2023/08/05 08:40:48;;;;;;;3.70;3.40;;;22.80;76.80;;;;;;5013827;28;20203;-71
2023/08/05 08:43:15;;;;;;;8.53;4.40;;;22.70;76.60;;;;;;5013427;28;20211;-71
2023/08/05 08:45:43;;;;;;;4.43;3.23;;;22.60;77.20;;;;;;4997602;28;20229;-71
2023/08/05 08:48:10;;;;;;;3.80;3.50;;;22.60;77.70;;;;;;5013728;28;20647;-71
2023/08/05 08:50:38;;;;;;;4.23;3.60;;;22.70;76.70;;;;;;5012527;28;20219;-71
2023/08/05 08:53:08;;;;;;;3.53;3.23;;;22.60;77.40;;;;;;5007711;28;20233;-71
2023/08/05 08:55:37;;;;;;;3.93;2.93;;;22.70;77.60;;;;;;5013995;28;20214;-71
2023/08/05 08:58:04;;;;;;;4.63;2.57;;;22.80;75.80;;;;;;5014195;28;20233;-72
2023/08/05 09:00:32;;;;;;;5.87;2.97;;;22.90;75.80;;;;;;5013806;28;20223;-72
2023/08/05 09:03:02;;;;;;;3.70;2.97;;;23.10;76.10;;;;;;5013585;28;20214;-71
2023/08/05 09:05:33;;;;;;;3.07;2.83;;;23.30;76.40;;;;;;5010613;28;20235;-71
2023/08/05 09:08:03;;;;;;;3.30;3.00;;;23.50;75.80;;;;;;5013995;28;20397;-71
2023/08/05 09:10:31;;;;;;;4.57;3.13;;;23.60;75.30;;;;;;5013771;28;20229;-71
2023/08/05 09:13:00;;;;;;;4.83;3.00;;;23.70;74.70;;;;;;5012912;28;20227;-72
2023/08/05 09:15:33;;;;;;;3.00;2.70;;;23.50;74.20;;;;;;5013530;28;20666;-71
2023/08/05 09:17:59;;;;;;;4.17;3.13;;;23.50;74.30;;;;;;5013141;28;20218;-72
2023/08/05 09:20:27;;;;;;;3.27;2.90;;;23.50;74.00;;;;;;5013133;28;20204;-72
2023/08/05 09:22:55;;;;;;;7.43;3.27;;;23.50;74.40;;;;;;5013317;28;20213;-72
2023/08/05 09:25:22;;;;;;;3.47;2.93;;;23.50;74.80;;;;;;5013395;28;20522;-72
2023/08/05 09:27:52;;;;;;;3.40;2.87;;;23.60;74.70;;;;;;5013602;28;20295;-71
2023/08/05 09:30:21;;;;;;;4.20;2.57;;;23.80;73.20;;;;;;5012718;28;20249;-72
2023/08/05 09:32:49;;;;;;;3.40;3.00;;;23.80;73.40;;;;;;5013374;28;20336;-72
2023/08/05 09:35:16;;;;;;;3.70;2.60;;;24.00;73.20;;;;;;5013136;28;20694;-72
2023/08/05 09:37:46;;;;;;;2.97;2.47;;;24.10;73.70;;;;;;5013437;28;20321;-72
2023/08/05 09:40:17;;;;;;;3.30;2.60;;;24.20;71.50;;;;;;5007871;28;20206;-71
2023/08/05 09:42:47;;;;;;;3.03;2.40;;;24.30;70.10;;;;;;5006390;28;20216;-72
2023/08/05 09:45:17;;;;;;;4.60;2.87;;;24.30;71.20;;;;;;4993586;28;20314;-72
2023/08/05 09:47:47;;;;;;;4.03;2.70;;;24.40;71.40;;;;;;4993599;28;20204;-72
2023/08/05 09:50:14;;;;;;;2.90;2.70;;;24.40;70.60;;;;;;4993151;28;20214;-72
2023/08/05 09:52:42;;;;;;;3.07;2.77;;;24.50;70.70;;;;;;4999315;28;20219;-72
2023/08/05 09:55:15;;;;;;;3.27;2.60;;;24.60;71.20;;;;;;5013272;28;20230;-72
2023/08/05 09:57:42;;;;;;;2.77;2.50;;;24.60;70.40;;;;;;5012065;28;20231;-72
2023/08/05 10:00:11;;;;;;;2.50;2.30;;;24.70;70.80;;;;;;5008581;28;20563;-72
2023/08/05 10:02:41;;;;;;;4.17;2.60;;;24.60;68.80;;;;;;5008759;28;20199;-72
2023/08/05 10:05:10;;;;;;;3.93;2.63;;;24.40;68.90;;;;;;5000732;28;20238;-73
2023/08/05 10:07:39;;;;;;;3.07;2.30;;;24.40;69.20;;;;;;4995340;28;20217;-72
2023/08/05 10:10:09;;;;;;;3.57;2.47;;;24.50;69.90;;;;;;5012174;28;21342;-73
2023/08/05 10:12:40;;;;;;;4.97;2.70;;;24.70;70.50;;;;;;5009583;28;20274;-72
2023/08/05 10:15:09;;;;;;;3.77;2.60;;;24.90;70.40;;;;;;4996621;28;20228;-72
2023/08/05 10:17:40;;;;;;;4.73;2.77;;;24.90;69.40;;;;;;5011239;28;20322;-72
2023/08/05 10:20:12;;;;;;;2.77;2.23;;;24.80;69.00;;;;;;5011891;28;20214;-72
2023/08/05 10:22:39;;;;;;;2.97;2.50;;;24.80;69.50;;;;;;5012405;28;20227;-72
2023/08/05 10:25:07;;;;;;;2.37;2.17;;;24.70;68.20;;;;;;5012356;28;20195;-72
2023/08/05 10:27:36;;;;;;;2.13;1.97;;;24.80;67.90;;;;;;5012066;28;20286;-72
2023/08/05 10:30:07;;;;;;;2.83;2.37;;;24.90;68.60;;;;;;5011552;28;20317;-72
2023/08/05 10:32:35;;;;;;;4.30;2.40;;;25.10;67.50;;;;;;5011818;28;20219;-71
2023/08/05 10:35:31;;;;;;;3.03;2.30;;;25.20;66.30;;;;;;5007323;28;20211;-71
2023/08/05 10:38:13;;;;;;;2.87;2.10;;;25.40;66.10;;;;;;4987931;28;20238;-71
2023/08/05 10:40:48;;;;;;;4.00;2.33;;;25.50;66.50;;;;;;5012187;28;20663;-72
2023/08/05 10:43:35;;;;;;;2.20;1.93;;;25.60;64.50;;;;;;5001318;28;20227;-73
2023/08/05 10:46:12;;;;;;;2.50;2.30;;;25.50;62.70;;;;;;5008694;28;20286;-73
2023/08/05 10:48:41;;;;;;;2.23;2.03;;;25.60;65.20;;;;;;5011575;28;20206;-72
2023/08/05 10:51:12;;;;;;;1.77;1.67;;;25.60;63.20;;;;;;5011260;28;20209;-72
2023/08/05 10:53:39;;;;;;;2.10;1.90;;;25.50;61.50;;;;;;5012108;28;20249;-72
2023/08/05 10:56:11;;;;;;;2.13;1.60;;;25.40;59.70;;;;;;5011819;28;20202;-72
2023/08/05 10:58:43;;;;;;;2.30;1.90;;;25.30;60.50;;;;;;5011877;28;20273;-72
2023/08/05 11:01:10;;;;;;;2.27;2.00;;;25.50;63.20;;;;;;5011761;28;20194;-72
2023/08/05 11:03:41;;;;;;;2.43;2.23;;;25.80;64.40;;;;;;5011190;28;20213;-72
2023/08/05 11:06:10;;;;;;;2.47;2.10;;;26.00;62.80;;;;;;5011911;28;20207;-72
2023/08/05 11:08:38;;;;;;;1.97;1.77;;;25.90;62.20;;;;;;5012130;28;20200;-72
2023/08/05 11:11:06;;;;;;;2.20;2.00;;;26.00;62.80;;;;;;5009944;28;20210;-72
2023/08/05 11:13:34;;;;;;;3.43;2.17;;;26.10;62.10;;;;;;5011465;28;20225;-72
2023/08/05 11:16:03;;;;;;;2.30;2.10;;;26.00;60.60;;;;;;5006056;28;20238;-72
2023/08/05 11:18:31;;;;;;;2.27;1.90;;;26.00;61.60;;;;;;5011773;28;20575;-72
2023/08/05 11:20:58;;;;;;;2.20;2.00;;;26.20;63.00;;;;;;5011218;28;20654;-72
2023/08/05 11:23:27;;;;;;;3.13;2.20;;;26.30;63.00;;;;;;5011570;28;20586;-72
2023/08/05 11:25:54;;;;;;;3.90;2.00;;;26.40;61.70;;;;;;5010725;28;20531;-72
2023/08/05 11:28:21;;;;;;;3.30;2.23;;;26.50;61.80;;;;;;5011525;28;20185;-72
2023/08/05 11:30:48;;;;;;;3.07;2.07;;;26.40;60.70;;;;;;5010337;28;20226;-72
2023/08/05 11:33:15;;;;;;;2.47;2.03;;;26.40;61.50;;;;;;5010885;28;20482;-72
2023/08/05 11:35:46;;;;;;;2.63;2.03;;;26.50;61.70;;;;;;5011350;28;20195;-71
2023/08/05 11:38:16;;;;;;;3.20;2.60;;;26.50;60.40;;;;;;5011268;28;20237;-69
2023/08/05 11:40:46;;;;;;;2.70;2.00;;;26.60;60.30;;;;;;5006812;28;20228;-72
2023/08/05 11:43:15;;;;;;;3.17;2.27;;;26.40;60.10;;;;;;5002169;28;20212;-72
2023/08/05 11:45:43;;;;;;;1.87;1.77;;;26.50;61.50;;;;;;5009731;28;20290;-72
2023/08/05 11:48:20;;;;;;;2.63;2.43;;;26.60;60.60;;;;;;5011105;28;20214;-72
2023/08/05 11:50:47;;;;;;;2.10;1.90;;;26.80;60.00;;;;;;5010628;28;20564;-72
2023/08/05 11:53:14;;;;;;;2.90;2.20;;;27.00;59.10;;;;;;5009477;28;20205;-72
2023/08/05 11:55:42;;;;;;;2.57;2.13;;;27.00;58.60;;;;;;5010848;28;20226;-72
2023/08/05 11:58:11;;;;;;;1.80;1.70;;;27.00;58.20;;;;;;5011486;28;20281;-72
2023/08/05 12:00:43;;;;;;;3.77;2.00;;;27.10;58.70;;;;;;5010906;28;20219;-72
2023/08/05 12:03:10;;;;;;;2.20;2.00;;;27.10;57.90;;;;;;5013571;28;20202;-71
2023/08/05 12:05:37;;;;;;;4.03;1.97;;;27.10;57.70;;;;;;5015022;28;20207;-72
2023/08/05 12:08:04;;;;;;;4.10;2.30;;;27.00;57.00;;;;;;5014774;28;20838;-72
2023/08/05 12:10:31;;;;;;;2.20;2.00;;;27.10;57.50;;;;;;5014925;28;20197;-72
2023/08/05 12:13:01;;;;;;;2.20;2.00;;;27.20;58.70;;;;;;5014246;28;20205;-72
2023/08/05 12:15:30;;;;;;;2.97;1.83;;;27.30;59.40;;;;;;5014520;28;20277;-72
2023/08/05 12:17:58;;;;;;;2.10;1.70;;;27.40;57.70;;;;;;5010304;28;20227;-72
2023/08/05 12:20:26;;;;;;;2.10;1.80;;;27.40;57.30;;;;;;5014285;28;20294;-71
2023/08/05 12:22:54;;;;;;;2.30;2.10;;;27.50;57.30;;;;;;5013911;28;20242;-72
2023/08/05 12:25:22;;;;;;;2.10;1.90;;;27.60;56.20;;;;;;4997248;28;20216;-72
2023/08/05 12:27:49;;;;;;;1.80;1.70;;;27.50;56.70;;;;;;5013768;28;20543;-72
2023/08/05 12:30:16;;;;;;;2.50;1.70;;;27.50;55.40;;;;;;5014016;28;20206;-71
2023/08/05 12:32:44;;;;;;;2.10;1.83;;;27.50;56.50;;;;;;5014099;28;20289;-72
2023/08/05 12:35:11;;;;;;;3.27;2.07;;;27.50;55.50;;;;;;5014193;28;20231;-72
2023/08/05 12:37:41;;;;;;;2.00;1.80;;;27.60;56.50;;;;;;5014188;28;20211;-72
2023/08/05 12:40:10;;;;;;;2.30;2.10;;;27.70;56.30;;;;;;5013892;28;20251;-72
2023/08/05 12:42:37;;;;;;;1.77;1.67;;;27.70;55.60;;;;;;5005702;28;20236;-71
2023/08/05 12:45:05;;;;;;;2.53;2.20;;;27.80;55.60;;;;;;5013625;28;20300;-72
2023/08/05 12:47:32;;;;;;;2.27;2.07;;;27.80;54.90;;;;;;5013492;28;20222;-72
2023/08/05 12:50:01;;;;;;;2.33;2.13;;;27.80;55.20;;;;;;5013708;28;20220;-72
2023/08/05 12:52:28;;;;;;;2.50;2.10;;;27.80;55.70;;;;;;5013306;28;20216;-72